Pagina principale
METAR-TAF:

METAR-TAF

Aeroporti :

Tuzla, Bosnia-Erzegovina

Aeroporto Internazionale di Tuzla

latitudine: 44-33N, longitudine: 018-42E, altezza: 306 m

Osservazione

Il bollettino è stato emesso 29 minuti fa, alle 09:00 UTC
Vento 5 kt da sud-est, variando fra est e sud
Temperature 23°C
Umidità 44%
Pressione 1019 hPa
Visibilità 10 km o più
nessuna nube inferiore a 1500 m e nessun cumulonembo

METAR: LQTZ 290900Z 13005KT 090V190 CAVOK 23/10 Q1019

Ora: 11:29 (09:29 UTC)

Previsione

Il bollettino è stato emesso 4 ore e 29 minuti fa, alle 05:00 UTC
Previsione valida dal 29 alle 06 UTC al 30 alle 06 UTC
Vento 2 kt da direzioni variabili
Visibilità 10 km o più
nessuna nube inferiore a 1500 m e nessun cumulonembo
Temporaneamente
dal 29 alle 12 UTC al 29 alle 16 UTC
Vento 10 kt da est

TAF: LQTZ 290500Z 2906/3006 VRB02KT CAVOK TX27/2914Z TN09/3004Z TEMPO 2912/2916 09010KT

Osservazioni e previsioni meteorologiche di più di 4000 aeroporti (messaggi METAR e TAF).

Le stazioni disponibili sono rappresentate dai dischi gialli e rossi sulla carta.

Puntare il mouse per vedere il nome della stazione.

Clicca sopra per visualizzare le osservazioni e previsioni meteorologiche.

Per cambiare la mappa : fare clic sui pulsanti verdi con una croce nera per ingrandire, il pulsante verde con un trattino per diminuire, o sulla freccia verde per le mappe adiacenti.


METAR-TAF: